sensor_id;sensor_type;location;lat;lon;timestamp;P1;durP1;ratioP1;P2;durP2;ratioP2
69008;SDS011;56065;52.472;13.380;2023-04-06T00:00:22;8.40;;;3.30;;
69008;SDS011;56065;52.472;13.380;2023-04-06T00:02:48;9.00;;;3.50;;
69008;SDS011;56065;52.472;13.380;2023-04-06T00:05:14;9.30;;;3.63;;
69008;SDS011;56065;52.472;13.380;2023-04-06T00:07:40;9.02;;;3.28;;
69008;SDS011;56065;52.472;13.380;2023-04-06T00:10:05;7.93;;;3.20;;
69008;SDS011;56065;52.472;13.380;2023-04-06T00:12:31;9.70;;;3.20;;
69008;SDS011;56065;52.472;13.380;2023-04-06T00:14:57;10.07;;;3.70;;
69008;SDS011;56065;52.472;13.380;2023-04-06T00:17:22;8.98;;;3.85;;
69008;SDS011;56065;52.472;13.380;2023-04-06T00:19:48;7.47;;;3.10;;
69008;SDS011;56065;52.472;13.380;2023-04-06T00:22:13;11.53;;;3.73;;
69008;SDS011;56065;52.472;13.380;2023-04-06T00:24:38;8.57;;;3.20;;
69008;SDS011;56065;52.472;13.380;2023-04-06T00:27:04;10.02;;;3.80;;
69008;SDS011;56065;52.472;13.380;2023-04-06T00:29:30;10.33;;;3.37;;
69008;SDS011;56065;52.472;13.380;2023-04-06T00:31:55;9.27;;;3.10;;
69008;SDS011;56065;52.472;13.380;2023-04-06T00:34:20;7.67;;;3.10;;
69008;SDS011;56065;52.472;13.380;2023-04-06T00:36:46;10.32;;;3.10;;
69008;SDS011;56065;52.472;13.380;2023-04-06T00:39:11;8.23;;;3.50;;
69008;SDS011;56065;52.472;13.380;2023-04-06T00:41:37;10.33;;;3.50;;
69008;SDS011;56065;52.472;13.380;2023-04-06T00:44:04;8.38;;;3.50;;
69008;SDS011;56065;52.472;13.380;2023-04-06T00:46:29;8.50;;;3.43;;
69008;SDS011;56065;52.472;13.380;2023-04-06T00:48:56;9.50;;;3.53;;
69008;SDS011;56065;52.472;13.380;2023-04-06T00:51:22;7.88;;;3.20;;
69008;SDS011;56065;52.472;13.380;2023-04-06T00:53:47;10.20;;;3.50;;
69008;SDS011;56065;52.472;13.380;2023-04-06T00:56:13;7.83;;;3.33;;
69008;SDS011;56065;52.472;13.380;2023-04-06T00:58:38;8.93;;;3.50;;
69008;SDS011;56065;52.472;13.380;2023-04-06T01:01:05;10.40;;;3.55;;
69008;SDS011;56065;52.472;13.380;2023-04-06T01:03:31;7.93;;;3.15;;
69008;SDS011;56065;52.472;13.380;2023-04-06T01:05:56;8.60;;;3.23;;
69008;SDS011;56065;52.472;13.380;2023-04-06T01:08:23;7.38;;;3.03;;
69008;SDS011;56065;52.472;13.380;2023-04-06T01:10:49;9.20;;;3.23;;
69008;SDS011;56065;52.472;13.380;2023-04-06T01:13:15;9.10;;;3.22;;
69008;SDS011;56065;52.472;13.380;2023-04-06T01:15:41;8.95;;;3.47;;
69008;SDS011;56065;52.472;13.380;2023-04-06T01:18:10;9.23;;;3.70;;
69008;SDS011;56065;52.472;13.380;2023-04-06T01:20:35;10.30;;;3.27;;
69008;SDS011;56065;52.472;13.380;2023-04-06T01:23:01;8.73;;;3.40;;
69008;SDS011;56065;52.472;13.380;2023-04-06T01:25:27;8.83;;;3.40;;
69008;SDS011;56065;52.472;13.380;2023-04-06T01:27:52;10.18;;;3.65;;
69008;SDS011;56065;52.472;13.380;2023-04-06T01:30:18;8.43;;;3.40;;
69008;SDS011;56065;52.472;13.380;2023-04-06T01:32:43;8.73;;;3.47;;
69008;SDS011;56065;52.472;13.380;2023-04-06T01:35:09;8.65;;;3.58;;
69008;SDS011;56065;52.472;13.380;2023-04-06T01:37:35;10.07;;;4.00;;
69008;SDS011;56065;52.472;13.380;2023-04-06T01:40:01;9.83;;;3.70;;
69008;SDS011;56065;52.472;13.380;2023-04-06T01:42:26;9.03;;;2.97;;
69008;SDS011;56065;52.472;13.380;2023-04-06T01:44:52;11.68;;;3.65;;
69008;SDS011;56065;52.472;13.380;2023-04-06T01:47:18;9.13;;;3.43;;
69008;SDS011;56065;52.472;13.380;2023-04-06T01:49:43;8.70;;;3.70;;
69008;SDS011;56065;52.472;13.380;2023-04-06T01:52:09;9.13;;;3.50;;
69008;SDS011;56065;52.472;13.380;2023-04-06T01:54:34;9.03;;;3.23;;
69008;SDS011;56065;52.472;13.380;2023-04-06T01:57:00;8.32;;;3.25;;
69008;SDS011;56065;52.472;13.380;2023-04-06T01:59:25;10.77;;;3.30;;
69008;SDS011;56065;52.472;13.380;2023-04-06T02:01:51;10.83;;;4.10;;
69008;SDS011;56065;52.472;13.380;2023-04-06T02:04:16;10.20;;;3.53;;
69008;SDS011;56065;52.472;13.380;2023-04-06T02:06:41;9.10;;;4.00;;
69008;SDS011;56065;52.472;13.380;2023-04-06T02:09:07;9.18;;;4.13;;
69008;SDS011;56065;52.472;13.380;2023-04-06T02:11:32;10.47;;;3.47;;
69008;SDS011;56065;52.472;13.380;2023-04-06T02:13:58;7.50;;;3.60;;
69008;SDS011;56065;52.472;13.380;2023-04-06T02:16:25;6.97;;;3.10;;
69008;SDS011;56065;52.472;13.380;2023-04-06T02:18:50;12.60;;;3.60;;
69008;SDS011;56065;52.472;13.380;2023-04-06T02:21:16;8.60;;;3.30;;
69008;SDS011;56065;52.472;13.380;2023-04-06T02:23:45;20.83;;;3.90;;
69008;SDS011;56065;52.472;13.380;2023-04-06T02:26:10;8.60;;;3.43;;
69008;SDS011;56065;52.472;13.380;2023-04-06T02:28:36;9.53;;;3.70;;
69008;SDS011;56065;52.472;13.380;2023-04-06T02:31:01;8.30;;;3.42;;
69008;SDS011;56065;52.472;13.380;2023-04-06T02:33:27;10.30;;;3.60;;
69008;SDS011;56065;52.472;13.380;2023-04-06T02:35:52;11.17;;;3.57;;
69008;SDS011;56065;52.472;13.380;2023-04-06T02:38:17;9.53;;;3.50;;
69008;SDS011;56065;52.472;13.380;2023-04-06T02:40:43;8.97;;;3.70;;
69008;SDS011;56065;52.472;13.380;2023-04-06T02:43:08;11.02;;;3.90;;
69008;SDS011;56065;52.472;13.380;2023-04-06T02:45:33;9.83;;;4.00;;
69008;SDS011;56065;52.472;13.380;2023-04-06T02:47:59;8.03;;;3.17;;
69008;SDS011;56065;52.472;13.380;2023-04-06T02:50:24;13.60;;;4.33;;
69008;SDS011;56065;52.472;13.380;2023-04-06T02:52:51;11.90;;;3.67;;
69008;SDS011;56065;52.472;13.380;2023-04-06T02:55:17;10.07;;;4.72;;
69008;SDS011;56065;52.472;13.380;2023-04-06T02:57:44;11.80;;;4.73;;
69008;SDS011;56065;52.472;13.380;2023-04-06T03:00:10;11.55;;;4.38;;
69008;SDS011;56065;52.472;13.380;2023-04-06T03:02:36;12.48;;;4.18;;
69008;SDS011;56065;52.472;13.380;2023-04-06T03:05:01;10.37;;;3.97;;
69008;SDS011;56065;52.472;13.380;2023-04-06T03:07:28;9.52;;;4.20;;
69008;SDS011;56065;52.472;13.380;2023-04-06T03:09:53;11.03;;;4.87;;
69008;SDS011;56065;52.472;13.380;2023-04-06T03:12:19;10.98;;;4.78;;
69008;SDS011;56065;52.472;13.380;2023-04-06T03:14:45;12.37;;;5.10;;
69008;SDS011;56065;52.472;13.380;2023-04-06T03:17:10;11.67;;;5.03;;
69008;SDS011;56065;52.472;13.380;2023-04-06T03:19:36;10.77;;;4.70;;
69008;SDS011;56065;52.472;13.380;2023-04-06T03:22:01;13.33;;;5.80;;
69008;SDS011;56065;52.472;13.380;2023-04-06T03:24:27;13.03;;;5.33;;
69008;SDS011;56065;52.472;13.380;2023-04-06T03:26:52;10.07;;;4.77;;
69008;SDS011;56065;52.472;13.380;2023-04-06T03:29:17;11.93;;;5.18;;
69008;SDS011;56065;52.472;13.380;2023-04-06T03:31:43;10.47;;;5.10;;
69008;SDS011;56065;52.472;13.380;2023-04-06T03:34:08;13.17;;;5.50;;
69008;SDS011;56065;52.472;13.380;2023-04-06T03:36:34;11.27;;;5.40;;
69008;SDS011;56065;52.472;13.380;2023-04-06T03:39:00;12.65;;;6.05;;
69008;SDS011;56065;52.472;13.380;2023-04-06T03:41:25;12.37;;;5.83;;
69008;SDS011;56065;52.472;13.380;2023-04-06T03:43:51;15.18;;;6.28;;
69008;SDS011;56065;52.472;13.380;2023-04-06T03:46:17;11.27;;;6.25;;
69008;SDS011;56065;52.472;13.380;2023-04-06T03:48:42;11.20;;;6.23;;
69008;SDS011;56065;52.472;13.380;2023-04-06T03:51:07;14.20;;;6.80;;
69008;SDS011;56065;52.472;13.380;2023-04-06T03:53:33;14.17;;;6.23;;
69008;SDS011;56065;52.472;13.380;2023-04-06T03:55:58;12.37;;;5.90;;
69008;SDS011;56065;52.472;13.380;2023-04-06T03:58:24;13.23;;;6.93;;
69008;SDS011;56065;52.472;13.380;2023-04-06T04:00:49;16.93;;;7.00;;
69008;SDS011;56065;52.472;13.380;2023-04-06T04:03:15;13.07;;;7.00;;
69008;SDS011;56065;52.472;13.380;2023-04-06T04:05:40;16.05;;;7.55;;
69008;SDS011;56065;52.472;13.380;2023-04-06T04:08:05;13.57;;;7.60;;
69008;SDS011;56065;52.472;13.380;2023-04-06T04:10:31;13.90;;;6.83;;
69008;SDS011;56065;52.472;13.380;2023-04-06T04:12:56;15.20;;;7.47;;
69008;SDS011;56065;52.472;13.380;2023-04-06T04:15:22;16.80;;;7.63;;
69008;SDS011;56065;52.472;13.380;2023-04-06T04:17:47;14.98;;;7.30;;
69008;SDS011;56065;52.472;13.380;2023-04-06T04:20:14;17.13;;;8.10;;
69008;SDS011;56065;52.472;13.380;2023-04-06T04:22:40;14.70;;;8.00;;
69008;SDS011;56065;52.472;13.380;2023-04-06T04:25:06;14.67;;;7.00;;
69008;SDS011;56065;52.472;13.380;2023-04-06T04:27:31;15.38;;;7.97;;
69008;SDS011;56065;52.472;13.380;2023-04-06T04:29:57;14.83;;;8.57;;
69008;SDS011;56065;52.472;13.380;2023-04-06T04:32:22;15.23;;;8.43;;
69008;SDS011;56065;52.472;13.380;2023-04-06T04:34:48;15.83;;;8.37;;
69008;SDS011;56065;52.472;13.380;2023-04-06T04:37:13;18.67;;;9.32;;
69008;SDS011;56065;52.472;13.380;2023-04-06T04:39:38;17.03;;;9.33;;
69008;SDS011;56065;52.472;13.380;2023-04-06T04:42:04;21.00;;;9.63;;
69008;SDS011;56065;52.472;13.380;2023-04-06T04:44:30;18.35;;;8.82;;
69008;SDS011;56065;52.472;13.380;2023-04-06T04:46:55;17.27;;;10.27;;
69008;SDS011;56065;52.472;13.380;2023-04-06T04:49:21;15.20;;;8.57;;
69008;SDS011;56065;52.472;13.380;2023-04-06T04:51:47;16.63;;;9.73;;
69008;SDS011;56065;52.472;13.380;2023-04-06T04:54:12;15.23;;;8.00;;
69008;SDS011;56065;52.472;13.380;2023-04-06T04:56:38;16.50;;;8.45;;
69008;SDS011;56065;52.472;13.380;2023-04-06T04:59:03;19.07;;;8.90;;
69008;SDS011;56065;52.472;13.380;2023-04-06T05:01:28;21.93;;;8.13;;
69008;SDS011;56065;52.472;13.380;2023-04-06T05:03:54;20.07;;;9.67;;
69008;SDS011;56065;52.472;13.380;2023-04-06T05:06:19;15.53;;;7.97;;
69008;SDS011;56065;52.472;13.380;2023-04-06T05:08:45;17.87;;;8.57;;
69008;SDS011;56065;52.472;13.380;2023-04-06T05:11:10;13.90;;;7.00;;
69008;SDS011;56065;52.472;13.380;2023-04-06T05:13:36;14.80;;;7.43;;
69008;SDS011;56065;52.472;13.380;2023-04-06T05:16:01;21.13;;;8.40;;
69008;SDS011;56065;52.472;13.380;2023-04-06T05:18:27;14.60;;;7.27;;
69008;SDS011;56065;52.472;13.380;2023-04-06T05:20:52;14.30;;;6.80;;
69008;SDS011;56065;52.472;13.380;2023-04-06T05:23:18;14.57;;;6.37;;
69008;SDS011;56065;52.472;13.380;2023-04-06T05:25:43;13.73;;;6.83;;
69008;SDS011;56065;52.472;13.380;2023-04-06T05:28:09;17.07;;;7.07;;
69008;SDS011;56065;52.472;13.380;2023-04-06T05:30:34;12.73;;;6.00;;
69008;SDS011;56065;52.472;13.380;2023-04-06T05:33:00;15.48;;;6.72;;
69008;SDS011;56065;52.472;13.380;2023-04-06T05:35:26;12.70;;;6.80;;
69008;SDS011;56065;52.472;13.380;2023-04-06T05:37:51;13.13;;;6.80;;
69008;SDS011;56065;52.472;13.380;2023-04-06T05:40:17;14.47;;;7.17;;
69008;SDS011;56065;52.472;13.380;2023-04-06T05:42:42;15.83;;;7.37;;
69008;SDS011;56065;52.472;13.380;2023-04-06T05:45:08;12.48;;;6.22;;
69008;SDS011;56065;52.472;13.380;2023-04-06T05:47:35;14.93;;;6.73;;
69008;SDS011;56065;52.472;13.380;2023-04-06T05:50:02;12.82;;;6.65;;
69008;SDS011;56065;52.472;13.380;2023-04-06T05:52:28;11.88;;;6.28;;
69008;SDS011;56065;52.472;13.380;2023-04-06T05:54:54;12.73;;;5.93;;
69008;SDS011;56065;52.472;13.380;2023-04-06T05:57:19;13.53;;;5.83;;
69008;SDS011;56065;52.472;13.380;2023-04-06T05:59:45;14.20;;;6.13;;
69008;SDS011;56065;52.472;13.380;2023-04-06T06:02:10;12.73;;;5.37;;
69008;SDS011;56065;52.472;13.380;2023-04-06T06:04:35;11.30;;;6.20;;
69008;SDS011;56065;52.472;13.380;2023-04-06T06:07:01;12.67;;;6.23;;
69008;SDS011;56065;52.472;13.380;2023-04-06T06:09:26;12.90;;;6.18;;
69008;SDS011;56065;52.472;13.380;2023-04-06T06:11:52;13.37;;;6.33;;
69008;SDS011;56065;52.472;13.380;2023-04-06T06:14:17;12.97;;;5.90;;
69008;SDS011;56065;52.472;13.380;2023-04-06T06:16:43;10.93;;;5.50;;
69008;SDS011;56065;52.472;13.380;2023-04-06T06:19:08;10.43;;;5.13;;
69008;SDS011;56065;52.472;13.380;2023-04-06T06:21:33;12.83;;;5.23;;
69008;SDS011;56065;52.472;13.380;2023-04-06T06:23:59;11.50;;;5.30;;
69008;SDS011;56065;52.472;13.380;2023-04-06T06:26:24;11.20;;;5.53;;
69008;SDS011;56065;52.472;13.380;2023-04-06T06:28:50;10.77;;;5.30;;
69008;SDS011;56065;52.472;13.380;2023-04-06T06:31:15;10.43;;;5.03;;
69008;SDS011;56065;52.472;13.380;2023-04-06T06:33:41;10.90;;;5.18;;
69008;SDS011;56065;52.472;13.380;2023-04-06T06:36:07;9.97;;;4.63;;
69008;SDS011;56065;52.472;13.380;2023-04-06T06:38:32;10.63;;;5.40;;
69008;SDS011;56065;52.472;13.380;2023-04-06T06:40:58;11.70;;;5.05;;
69008;SDS011;56065;52.472;13.380;2023-04-06T06:43:23;12.13;;;5.20;;
69008;SDS011;56065;52.472;13.380;2023-04-06T06:45:49;13.87;;;5.57;;
69008;SDS011;56065;52.472;13.380;2023-04-06T06:48:15;11.05;;;5.28;;
69008;SDS011;56065;52.472;13.380;2023-04-06T06:50:40;10.83;;;5.13;;
69008;SDS011;56065;52.472;13.380;2023-04-06T06:53:05;10.50;;;5.20;;
69008;SDS011;56065;52.472;13.380;2023-04-06T06:55:31;10.63;;;5.50;;
69008;SDS011;56065;52.472;13.380;2023-04-06T06:57:56;12.03;;;5.40;;
69008;SDS011;56065;52.472;13.380;2023-04-06T07:00:22;10.90;;;5.07;;
69008;SDS011;56065;52.472;13.380;2023-04-06T07:02:47;11.53;;;5.13;;
69008;SDS011;56065;52.472;13.380;2023-04-06T07:05:14;9.55;;;5.25;;
69008;SDS011;56065;52.472;13.380;2023-04-06T07:07:40;10.18;;;5.18;;
69008;SDS011;56065;52.472;13.380;2023-04-06T07:10:07;12.33;;;4.87;;
69008;SDS011;56065;52.472;13.380;2023-04-06T07:12:33;9.32;;;4.82;;
69008;SDS011;56065;52.472;13.380;2023-04-06T07:14:59;11.13;;;4.97;;
69008;SDS011;56065;52.472;13.380;2023-04-06T07:17:24;11.65;;;4.90;;
69008;SDS011;56065;52.472;13.380;2023-04-06T07:19:50;10.57;;;5.10;;
69008;SDS011;56065;52.472;13.380;2023-04-06T07:22:16;11.10;;;5.05;;
69008;SDS011;56065;52.472;13.380;2023-04-06T07:24:41;11.13;;;5.37;;
69008;SDS011;56065;52.472;13.380;2023-04-06T07:27:06;8.63;;;4.70;;
69008;SDS011;56065;52.472;13.380;2023-04-06T07:29:32;10.35;;;4.80;;
69008;SDS011;56065;52.472;13.380;2023-04-06T07:31:57;11.43;;;4.00;;
69008;SDS011;56065;52.472;13.380;2023-04-06T07:34:23;10.70;;;4.57;;
69008;SDS011;56065;52.472;13.380;2023-04-06T07:36:48;9.73;;;4.10;;
69008;SDS011;56065;52.472;13.380;2023-04-06T07:39:14;8.63;;;3.95;;
69008;SDS011;56065;52.472;13.380;2023-04-06T07:41:40;9.00;;;3.63;;
69008;SDS011;56065;52.472;13.380;2023-04-06T07:44:05;8.07;;;3.67;;
69008;SDS011;56065;52.472;13.380;2023-04-06T07:46:31;8.60;;;3.80;;
69008;SDS011;56065;52.472;13.380;2023-04-06T07:48:56;8.60;;;4.13;;
69008;SDS011;56065;52.472;13.380;2023-04-06T07:51:23;8.45;;;3.33;;
69008;SDS011;56065;52.472;13.380;2023-04-06T07:53:49;9.60;;;3.90;;
69008;SDS011;56065;52.472;13.380;2023-04-06T07:56:15;7.67;;;3.27;;
69008;SDS011;56065;52.472;13.380;2023-04-06T07:58:41;8.23;;;3.58;;
69008;SDS011;56065;52.472;13.380;2023-04-06T08:01:06;8.07;;;3.37;;
69008;SDS011;56065;52.472;13.380;2023-04-06T08:03:33;8.17;;;3.90;;
69008;SDS011;56065;52.472;13.380;2023-04-06T08:05:59;7.78;;;3.90;;
69008;SDS011;56065;52.472;13.380;2023-04-06T08:08:24;8.10;;;4.10;;
69008;SDS011;56065;52.472;13.380;2023-04-06T08:10:50;7.07;;;3.37;;
69008;SDS011;56065;52.472;13.380;2023-04-06T08:13:15;5.95;;;2.78;;
69008;SDS011;56065;52.472;13.380;2023-04-06T08:15:41;6.67;;;2.77;;
69008;SDS011;56065;52.472;13.380;2023-04-06T08:18:07;6.93;;;3.28;;
69008;SDS011;56065;52.472;13.380;2023-04-06T08:20:33;7.60;;;3.13;;
69008;SDS011;56065;52.472;13.380;2023-04-06T08:22:59;8.32;;;3.00;;
69008;SDS011;56065;52.472;13.380;2023-04-06T08:25:25;7.70;;;2.97;;
69008;SDS011;56065;52.472;13.380;2023-04-06T08:27:51;6.73;;;2.87;;
69008;SDS011;56065;52.472;13.380;2023-04-06T08:30:16;5.70;;;2.30;;
69008;SDS011;56065;52.472;13.380;2023-04-06T08:32:43;6.37;;;2.30;;
69008;SDS011;56065;52.472;13.380;2023-04-06T08:35:09;6.90;;;3.28;;
69008;SDS011;56065;52.472;13.380;2023-04-06T08:37:35;9.63;;;2.97;;
69008;SDS011;56065;52.472;13.380;2023-04-06T08:40:00;5.37;;;2.50;;
69008;SDS011;56065;52.472;13.380;2023-04-06T08:42:26;5.47;;;2.00;;
69008;SDS011;56065;52.472;13.380;2023-04-06T08:44:56;7.03;;;2.75;;
69008;SDS011;56065;52.472;13.380;2023-04-06T08:47:22;6.17;;;2.37;;
69008;SDS011;56065;52.472;13.380;2023-04-06T08:49:47;5.77;;;2.17;;
69008;SDS011;56065;52.472;13.380;2023-04-06T08:52:14;7.03;;;2.40;;
69008;SDS011;56065;52.472;13.380;2023-04-06T08:54:45;6.03;;;2.00;;
69008;SDS011;56065;52.472;13.380;2023-04-06T08:57:10;5.75;;;2.53;;
69008;SDS011;56065;52.472;13.380;2023-04-06T08:59:36;8.45;;;2.35;;
69008;SDS011;56065;52.472;13.380;2023-04-06T09:02:03;6.20;;;2.27;;
69008;SDS011;56065;52.472;13.380;2023-04-06T09:04:34;5.25;;;2.30;;
69008;SDS011;56065;52.472;13.380;2023-04-06T09:07:01;7.30;;;2.33;;
69008;SDS011;56065;52.472;13.380;2023-04-06T09:09:26;4.80;;;2.00;;
69008;SDS011;56065;52.472;13.380;2023-04-06T09:11:52;5.80;;;1.90;;
69008;SDS011;56065;52.472;13.380;2023-04-06T09:14:33;7.20;;;2.50;;
69008;SDS011;56065;52.472;13.380;2023-04-06T09:17:02;6.28;;;2.38;;
69008;SDS011;56065;52.472;13.380;2023-04-06T09:19:27;6.40;;;2.10;;
69008;SDS011;56065;52.472;13.380;2023-04-06T09:22:05;5.60;;;2.30;;
69008;SDS011;56065;52.472;13.380;2023-04-06T09:24:43;6.68;;;2.40;;
69008;SDS011;56065;52.472;13.380;2023-04-06T09:27:11;6.25;;;2.33;;
69008;SDS011;56065;52.472;13.380;2023-04-06T09:29:37;5.30;;;2.22;;
69008;SDS011;56065;52.472;13.380;2023-04-06T09:32:03;6.83;;;2.47;;
69008;SDS011;56065;52.472;13.380;2023-04-06T09:34:30;5.97;;;2.20;;
69008;SDS011;56065;52.472;13.380;2023-04-06T09:36:55;6.20;;;2.57;;
69008;SDS011;56065;52.472;13.380;2023-04-06T09:39:21;6.70;;;2.20;;
69008;SDS011;56065;52.472;13.380;2023-04-06T09:41:51;5.03;;;1.80;;
69008;SDS011;56065;52.472;13.380;2023-04-06T09:44:19;5.68;;;2.35;;
69008;SDS011;56065;52.472;13.380;2023-04-06T09:46:45;6.28;;;2.20;;
69008;SDS011;56065;52.472;13.380;2023-04-06T09:49:12;6.57;;;1.90;;
69008;SDS011;56065;52.472;13.380;2023-04-06T09:51:48;4.50;;;1.87;;
69008;SDS011;56065;52.472;13.380;2023-04-06T09:54:31;5.57;;;2.03;;
69008;SDS011;56065;52.472;13.380;2023-04-06T10:05:19;5.63;;;2.38;;
69008;SDS011;56065;52.472;13.380;2023-04-06T10:07:52;4.47;;;1.90;;
69008;SDS011;56065;52.472;13.380;2023-04-06T10:10:20;4.93;;;1.80;;
69008;SDS011;56065;52.472;13.380;2023-04-06T10:12:46;6.88;;;2.10;;
69008;SDS011;56065;52.472;13.380;2023-04-06T10:15:13;5.18;;;2.03;;
69008;SDS011;56065;52.472;13.380;2023-04-06T10:17:38;5.47;;;2.13;;
69008;SDS011;56065;52.472;13.380;2023-04-06T10:20:27;4.97;;;2.10;;
69008;SDS011;56065;52.472;13.380;2023-04-06T10:22:58;6.43;;;1.90;;
69008;SDS011;56065;52.472;13.380;2023-04-06T10:25:35;5.47;;;2.00;;
69008;SDS011;56065;52.472;13.380;2023-04-06T10:28:04;6.47;;;2.00;;
69008;SDS011;56065;52.472;13.380;2023-04-06T10:30:31;4.38;;;1.90;;
69008;SDS011;56065;52.472;13.380;2023-04-06T10:33:39;4.85;;;1.90;;
69008;SDS011;56065;52.472;13.380;2023-04-06T10:36:08;4.55;;;2.10;;
69008;SDS011;56065;52.472;13.380;2023-04-06T10:38:40;5.32;;;2.05;;
69008;SDS011;56065;52.472;13.380;2023-04-06T10:41:07;4.93;;;1.80;;
69008;SDS011;56065;52.472;13.380;2023-04-06T10:43:35;6.15;;;2.40;;
69008;SDS011;56065;52.472;13.380;2023-04-06T10:46:01;6.10;;;2.30;;
69008;SDS011;56065;52.472;13.380;2023-04-06T10:48:40;6.75;;;2.65;;
69008;SDS011;56065;52.472;13.380;2023-04-06T10:51:13;5.05;;;2.17;;
69008;SDS011;56065;52.472;13.380;2023-04-06T10:53:49;7.83;;;2.60;;
69008;SDS011;56065;52.472;13.380;2023-04-06T10:56:15;4.45;;;1.70;;
69008;SDS011;56065;52.472;13.380;2023-04-06T10:58:45;5.45;;;2.53;;
69008;SDS011;56065;52.472;13.380;2023-04-06T11:01:15;6.07;;;2.45;;
69008;SDS011;56065;52.472;13.380;2023-04-06T11:03:45;4.30;;;2.25;;
69008;SDS011;56065;52.472;13.380;2023-04-06T11:06:24;5.13;;;2.30;;
69008;SDS011;56065;52.472;13.380;2023-04-06T11:08:51;4.88;;;2.00;;
69008;SDS011;56065;52.472;13.380;2023-04-06T11:11:18;6.57;;;2.42;;
69008;SDS011;56065;52.472;13.380;2023-04-06T11:13:46;5.65;;;2.30;;
69008;SDS011;56065;52.472;13.380;2023-04-06T11:16:22;5.60;;;2.20;;
69008;SDS011;56065;52.472;13.380;2023-04-06T11:18:59;5.67;;;2.20;;
69008;SDS011;56065;52.472;13.380;2023-04-06T11:24:07;4.75;;;2.15;;
69008;SDS011;56065;52.472;13.380;2023-04-06T11:26:45;6.22;;;2.30;;
69008;SDS011;56065;52.472;13.380;2023-04-06T11:29:13;5.15;;;2.30;;
69008;SDS011;56065;52.472;13.380;2023-04-06T11:31:47;13.13;;;2.60;;
69008;SDS011;56065;52.472;13.380;2023-04-06T11:34:23;5.55;;;2.65;;
69008;SDS011;56065;52.472;13.380;2023-04-06T11:36:54;5.40;;;2.45;;
69008;SDS011;56065;52.472;13.380;2023-04-06T11:39:22;5.65;;;2.05;;
69008;SDS011;56065;52.472;13.380;2023-04-06T11:41:57;6.45;;;2.40;;
69008;SDS011;56065;52.472;13.380;2023-04-06T11:44:31;4.97;;;2.10;;
69008;SDS011;56065;52.472;13.380;2023-04-06T11:47:05;6.00;;;2.40;;
69008;SDS011;56065;52.472;13.380;2023-04-06T11:49:33;5.18;;;2.33;;
69008;SDS011;56065;52.472;13.380;2023-04-06T11:52:01;6.30;;;2.50;;
69008;SDS011;56065;52.472;13.380;2023-04-06T11:54:33;7.53;;;2.53;;
69008;SDS011;56065;52.472;13.380;2023-04-06T11:57:00;5.22;;;2.20;;
69008;SDS011;56065;52.472;13.380;2023-04-06T11:59:26;6.28;;;2.30;;
69008;SDS011;56065;52.472;13.380;2023-04-06T12:01:52;5.97;;;2.03;;
69008;SDS011;56065;52.472;13.380;2023-04-06T12:04:18;5.65;;;2.20;;
69008;SDS011;56065;52.472;13.380;2023-04-06T12:06:44;5.03;;;1.90;;
69008;SDS011;56065;52.472;13.380;2023-04-06T12:09:10;6.37;;;2.13;;
69008;SDS011;56065;52.472;13.380;2023-04-06T12:11:35;5.33;;;2.60;;
69008;SDS011;56065;52.472;13.380;2023-04-06T12:14:00;5.13;;;1.90;;
69008;SDS011;56065;52.472;13.380;2023-04-06T12:16:29;6.40;;;2.60;;
69008;SDS011;56065;52.472;13.380;2023-04-06T12:18:55;7.27;;;2.30;;
69008;SDS011;56065;52.472;13.380;2023-04-06T12:21:21;5.47;;;2.30;;
69008;SDS011;56065;52.472;13.380;2023-04-06T12:23:46;5.80;;;2.23;;
69008;SDS011;56065;52.472;13.380;2023-04-06T12:26:11;5.17;;;2.00;;
69008;SDS011;56065;52.472;13.380;2023-04-06T12:28:37;8.68;;;2.70;;
69008;SDS011;56065;52.472;13.380;2023-04-06T12:31:02;5.63;;;2.13;;
69008;SDS011;56065;52.472;13.380;2023-04-06T12:33:27;5.87;;;2.07;;
69008;SDS011;56065;52.472;13.380;2023-04-06T12:35:53;5.77;;;2.23;;
69008;SDS011;56065;52.472;13.380;2023-04-06T12:38:19;6.53;;;2.00;;
69008;SDS011;56065;52.472;13.380;2023-04-06T12:40:45;6.00;;;2.15;;
69008;SDS011;56065;52.472;13.380;2023-04-06T12:43:10;7.03;;;2.43;;
69008;SDS011;56065;52.472;13.380;2023-04-06T12:45:37;5.50;;;1.88;;
69008;SDS011;56065;52.472;13.380;2023-04-06T12:48:03;6.20;;;2.30;;
69008;SDS011;56065;52.472;13.380;2023-04-06T12:50:29;6.78;;;2.38;;
69008;SDS011;56065;52.472;13.380;2023-04-06T12:52:55;8.60;;;2.50;;
69008;SDS011;56065;52.472;13.380;2023-04-06T12:55:20;6.50;;;2.40;;
69008;SDS011;56065;52.472;13.380;2023-04-06T12:57:47;5.72;;;2.30;;
69008;SDS011;56065;52.472;13.380;2023-04-06T13:00:12;6.23;;;2.37;;
69008;SDS011;56065;52.472;13.380;2023-04-06T13:02:39;5.88;;;2.60;;
69008;SDS011;56065;52.472;13.380;2023-04-06T13:05:05;5.55;;;2.70;;
69008;SDS011;56065;52.472;13.380;2023-04-06T13:07:30;8.70;;;2.77;;
69008;SDS011;56065;52.472;13.380;2023-04-06T13:09:56;5.53;;;2.30;;
69008;SDS011;56065;52.472;13.380;2023-04-06T13:12:21;5.45;;;2.30;;
69008;SDS011;56065;52.472;13.380;2023-04-06T13:14:47;7.17;;;2.83;;
69008;SDS011;56065;52.472;13.380;2023-04-06T13:17:16;5.43;;;2.45;;
69008;SDS011;56065;52.472;13.380;2023-04-06T13:19:42;5.63;;;2.70;;
69008;SDS011;56065;52.472;13.380;2023-04-06T13:22:08;5.80;;;2.33;;
69008;SDS011;56065;52.472;13.380;2023-04-06T13:24:33;4.87;;;2.13;;
69008;SDS011;56065;52.472;13.380;2023-04-06T13:26:59;4.97;;;2.17;;
69008;SDS011;56065;52.472;13.380;2023-04-06T13:29:25;5.27;;;2.20;;
69008;SDS011;56065;52.472;13.380;2023-04-06T13:31:51;6.25;;;2.50;;
69008;SDS011;56065;52.472;13.380;2023-04-06T13:34:16;6.97;;;2.67;;
69008;SDS011;56065;52.472;13.380;2023-04-06T13:36:41;5.90;;;2.70;;
69008;SDS011;56065;52.472;13.380;2023-04-06T13:39:07;5.47;;;2.30;;
69008;SDS011;56065;52.472;13.380;2023-04-06T13:41:33;5.20;;;2.10;;
69008;SDS011;56065;52.472;13.380;2023-04-06T13:43:58;6.60;;;2.43;;
69008;SDS011;56065;52.472;13.380;2023-04-06T13:46:24;5.20;;;2.05;;
69008;SDS011;56065;52.472;13.380;2023-04-06T13:48:50;7.57;;;2.77;;
69008;SDS011;56065;52.472;13.380;2023-04-06T13:51:15;5.33;;;2.40;;
69008;SDS011;56065;52.472;13.380;2023-04-06T13:53:41;6.60;;;2.67;;
69008;SDS011;56065;52.472;13.380;2023-04-06T13:56:07;6.97;;;2.70;;
69008;SDS011;56065;52.472;13.380;2023-04-06T13:58:33;6.43;;;2.72;;
69008;SDS011;56065;52.472;13.380;2023-04-06T14:01:05;6.63;;;2.67;;
69008;SDS011;56065;52.472;13.380;2023-04-06T14:03:33;6.77;;;2.60;;
69008;SDS011;56065;52.472;13.380;2023-04-06T14:05:58;5.50;;;2.13;;
69008;SDS011;56065;52.472;13.380;2023-04-06T14:08:24;6.60;;;2.30;;
69008;SDS011;56065;52.472;13.380;2023-04-06T14:10:50;6.97;;;3.33;;
69008;SDS011;56065;52.472;13.380;2023-04-06T14:13:15;6.13;;;2.50;;
69008;SDS011;56065;52.472;13.380;2023-04-06T14:15:42;5.03;;;2.22;;
69008;SDS011;56065;52.472;13.380;2023-04-06T14:18:08;5.82;;;2.15;;
69008;SDS011;56065;52.472;13.380;2023-04-06T14:20:33;6.83;;;2.60;;
69008;SDS011;56065;52.472;13.380;2023-04-06T14:23:00;4.57;;;2.33;;
69008;SDS011;56065;52.472;13.380;2023-04-06T14:25:26;6.25;;;2.40;;
69008;SDS011;56065;52.472;13.380;2023-04-06T14:27:51;6.30;;;2.40;;
69008;SDS011;56065;52.472;13.380;2023-04-06T14:30:17;6.60;;;2.33;;
69008;SDS011;56065;52.472;13.380;2023-04-06T14:32:43;6.75;;;2.83;;
69008;SDS011;56065;52.472;13.380;2023-04-06T14:35:09;6.10;;;2.40;;